createdAt,value
2019-03-15T00:02:14.224Z,6.23
2019-03-15T00:04:44.831Z,5.03
2019-03-15T00:07:15.588Z,4.77
2019-03-15T00:09:46.244Z,6.03
2019-03-15T00:12:16.799Z,4.50
2019-03-15T00:14:48.309Z,6.73
2019-03-15T00:17:18.830Z,4.13
2019-03-15T00:19:49.923Z,6.63
2019-03-15T00:22:20.500Z,4.13
2019-03-15T00:24:51.084Z,4.87
2019-03-15T00:27:21.616Z,4.53
2019-03-15T00:29:52.756Z,6.50
2019-03-15T00:32:23.501Z,4.67
2019-03-15T00:34:54.915Z,8.27
2019-03-15T00:37:25.551Z,5.20
2019-03-15T00:39:56.160Z,6.07
2019-03-15T00:42:26.791Z,6.37
2019-03-15T00:44:57.416Z,5.57
2019-03-15T00:47:28.073Z,5.07
2019-03-15T00:49:59.233Z,7.30
2019-03-15T00:52:29.974Z,8.80
2019-03-15T00:55:00.580Z,4.57
2019-03-15T00:57:31.212Z,5.17
2019-03-15T01:00:01.857Z,4.43
2019-03-15T01:02:32.551Z,3.47
2019-03-15T01:05:03.212Z,3.07
2019-03-15T01:07:33.787Z,3.00
2019-03-15T01:10:05.879Z,2.80
2019-03-15T01:12:37.597Z,2.13
2019-03-15T01:15:12.064Z,6.63
2019-03-15T01:17:42.677Z,2.10
2019-03-15T01:20:13.286Z,1.37
2019-03-15T01:22:43.965Z,1.60
2019-03-15T01:25:14.741Z,1.70
2019-03-15T01:27:45.343Z,2.47
2019-03-15T01:30:15.936Z,3.00
2019-03-15T01:32:46.612Z,3.07
2019-03-15T01:35:18.132Z,2.03
2019-03-15T01:37:48.737Z,2.17
2019-03-15T01:40:19.411Z,2.40
2019-03-15T01:42:50.645Z,2.30
2019-03-15T01:45:21.237Z,2.70
2019-03-15T01:47:51.847Z,2.40
2019-03-15T01:50:22.465Z,2.03
2019-03-15T01:52:53.922Z,2.77
2019-03-15T01:55:24.441Z,4.27
2019-03-15T01:57:54.900Z,2.17
2019-03-15T02:00:25.562Z,3.10
2019-03-15T02:02:56.206Z,2.43
2019-03-15T02:05:26.793Z,2.10
2019-03-15T02:07:57.265Z,2.10
2019-03-15T02:10:27.878Z,2.60
2019-03-15T02:12:58.277Z,2.47
2019-03-15T02:15:28.882Z,2.50
2019-03-15T02:17:59.772Z,2.33
2019-03-15T02:20:30.364Z,4.47
2019-03-15T02:23:01.010Z,2.50
2019-03-15T02:25:31.631Z,3.50
2019-03-15T02:28:02.860Z,2.33
2019-03-15T02:30:33.446Z,3.60
2019-03-15T02:33:04.113Z,3.03
2019-03-15T02:35:35.452Z,2.73
2019-03-15T02:38:06.092Z,4.23
2019-03-15T02:40:36.688Z,4.03
2019-03-15T02:43:07.342Z,4.80
2019-03-15T02:45:37.852Z,6.57
2019-03-15T02:48:08.493Z,4.60
2019-03-15T02:50:39.025Z,6.37
2019-03-15T02:53:10.391Z,7.27
2019-03-15T02:55:41.110Z,5.97
2019-03-15T02:58:11.768Z,4.50
2019-03-15T03:00:42.656Z,3.77
2019-03-15T03:03:13.209Z,4.37
2019-03-15T03:05:43.741Z,5.67
2019-03-15T03:08:14.641Z,4.20
2019-03-15T03:10:45.305Z,3.90
2019-03-15T03:13:15.919Z,4.90
2019-03-15T03:15:46.519Z,4.70
2019-03-15T03:18:17.213Z,6.50
2019-03-15T03:20:48.348Z,3.93
2019-03-15T03:23:19.164Z,3.93
2019-03-15T03:25:49.850Z,4.07
2019-03-15T03:28:20.392Z,3.60
2019-03-15T03:30:50.935Z,3.77
2019-03-15T03:33:22.603Z,3.23
2019-03-15T03:35:54.617Z,3.23
2019-03-15T03:38:25.304Z,2.80
2019-03-15T03:40:56.695Z,3.63
2019-03-15T03:43:28.416Z,2.87
2019-03-15T03:45:59.039Z,3.23
2019-03-15T03:48:30.362Z,2.97
2019-03-15T03:51:00.938Z,3.50
2019-03-15T03:53:31.594Z,3.03
2019-03-15T03:56:02.223Z,2.67
2019-03-15T03:58:33.127Z,3.33
2019-03-15T04:01:03.796Z,3.70
2019-03-15T04:03:34.428Z,3.63
2019-03-15T04:06:05.014Z,4.60
2019-03-15T04:08:35.619Z,3.70
2019-03-15T04:11:06.214Z,4.20
2019-03-15T04:13:36.985Z,4.60
2019-03-15T04:16:07.579Z,4.40
2019-03-15T04:18:38.185Z,5.20
2019-03-15T04:21:08.861Z,5.07
2019-03-15T04:23:39.488Z,3.60
2019-03-15T04:26:10.098Z,4.67
2019-03-15T04:28:40.637Z,3.80
2019-03-15T04:31:11.240Z,4.13
2019-03-15T04:33:41.851Z,3.80
2019-03-15T04:36:13.248Z,3.87
2019-03-15T04:38:43.898Z,4.13
2019-03-15T04:41:14.481Z,5.53
2019-03-15T04:43:45.167Z,4.40
2019-03-15T04:46:16.800Z,4.40
2019-03-15T04:48:47.360Z,5.07
2019-03-15T04:51:17.948Z,4.03
2019-03-15T04:53:48.444Z,4.07
2019-03-15T04:56:18.946Z,4.30
2019-03-15T04:58:49.550Z,3.67
2019-03-15T05:01:23.094Z,3.67
2019-03-15T05:03:53.725Z,4.20
2019-03-15T05:06:24.321Z,5.50
2019-03-15T05:08:54.909Z,3.70
2019-03-15T05:11:25.357Z,4.40
2019-03-15T05:13:58.642Z,4.20
2019-03-15T05:16:28.111Z,4.83
2019-03-15T05:18:59.078Z,5.07
2019-03-15T05:21:33.526Z,5.10
2019-03-15T05:24:10.132Z,4.50
2019-03-15T05:26:40.644Z,3.70
2019-03-15T05:29:11.236Z,4.83
2019-03-15T05:31:41.819Z,3.87
2019-03-15T05:34:12.448Z,4.03
2019-03-15T05:36:44.016Z,3.80
2019-03-15T05:39:15.069Z,3.50
2019-03-15T05:41:45.921Z,4.07
2019-03-15T05:44:17.499Z,3.73
2019-03-15T05:46:48.439Z,4.10
2019-03-15T05:49:18.973Z,4.70
2019-03-15T05:51:49.700Z,5.00
2019-03-15T05:54:22.032Z,7.17
2019-03-15T05:56:52.667Z,7.83
2019-03-15T05:59:25.286Z,5.77
2019-03-15T06:01:55.922Z,5.10
2019-03-15T06:04:26.563Z,4.47
2019-03-15T06:06:57.166Z,5.30
2019-03-15T06:09:28.664Z,5.40
2019-03-15T06:12:02.391Z,10.30
2019-03-15T06:14:33.011Z,10.90
2019-03-15T06:17:03.595Z,6.07
2019-03-15T06:19:34.222Z,5.77
2019-03-15T06:22:04.831Z,6.83
2019-03-15T06:24:35.607Z,7.07
2019-03-15T06:27:06.220Z,9.43
2019-03-15T06:29:36.791Z,9.27
2019-03-15T06:32:07.406Z,9.53
2019-03-15T06:34:39.409Z,11.57
2019-03-15T06:37:13.835Z,10.53
2019-03-15T06:39:46.610Z,10.07
2019-03-15T06:42:19.085Z,10.03
2019-03-15T06:45:00.875Z,10.87
2019-03-15T06:47:31.988Z,12.83
2019-03-15T06:50:02.789Z,10.43
2019-03-15T06:52:34.221Z,7.87
2019-03-15T06:55:06.552Z,7.60
2019-03-15T06:57:40.353Z,9.57
2019-03-15T07:00:16.111Z,9.07
2019-03-15T07:02:46.715Z,8.60
2019-03-15T07:05:17.319Z,7.47
2019-03-15T07:07:47.826Z,8.23
2019-03-15T07:10:18.417Z,11.07
2019-03-15T07:12:52.805Z,9.43
2019-03-15T07:15:23.402Z,9.20
2019-03-15T07:17:55.048Z,9.73
2019-03-15T07:20:26.592Z,6.33
2019-03-15T07:22:57.934Z,7.53
2019-03-15T07:25:28.479Z,8.93
2019-03-15T07:27:59.109Z,7.10
2019-03-15T07:30:29.788Z,6.47
2019-03-15T07:33:03.864Z,6.47
2019-03-15T07:35:36.250Z,8.63
2019-03-15T07:38:07.659Z,4.90
2019-03-15T07:40:39.199Z,4.90
2019-03-15T07:43:09.724Z,6.83
2019-03-15T07:45:40.262Z,4.60
2019-03-15T07:48:21.957Z,4.63
2019-03-15T07:50:43.480Z,4.20
2019-03-15T07:53:14.147Z,5.43
2019-03-15T07:55:44.800Z,4.77
2019-03-15T07:58:15.727Z,3.60
2019-03-15T08:00:46.807Z,6.10
2019-03-15T08:03:20.541Z,4.93
2019-03-15T08:06:01.428Z,3.27
2019-03-15T08:08:32.446Z,3.20
2019-03-15T08:11:04.369Z,2.80
2019-03-15T08:13:34.902Z,3.53
2019-03-15T08:16:05.535Z,4.83
2019-03-15T08:18:36.109Z,3.60
2019-03-15T08:21:06.730Z,3.80
2019-03-15T08:23:37.307Z,5.70
2019-03-15T08:26:09.573Z,2.97
2019-03-15T08:28:42.988Z,5.63
2019-03-15T08:31:14.017Z,4.50
2019-03-15T08:33:48.140Z,3.60
2019-03-15T08:36:20.458Z,4.43
2019-03-15T08:38:57.885Z,2.60
2019-03-15T08:41:28.477Z,4.67
2019-03-15T08:43:59.067Z,1.90
2019-03-15T08:46:29.654Z,2.07
2019-03-15T08:49:00.264Z,3.60
2019-03-15T08:51:30.911Z,2.00
2019-03-15T08:54:01.521Z,2.63
2019-03-15T08:56:33.111Z,2.93
2019-03-15T08:59:04.697Z,2.77
2019-03-15T09:04:05.041Z,6.20
2019-03-15T09:06:35.899Z,5.10
2019-03-15T09:09:09.682Z,6.77
2019-03-15T09:11:40.266Z,7.03
2019-03-15T09:14:10.818Z,6.60
2019-03-15T09:16:41.405Z,3.57
2019-03-15T09:19:12.094Z,2.70
2019-03-15T09:21:42.827Z,4.77
2019-03-15T09:24:16.421Z,3.60
2019-03-15T09:26:45.672Z,3.73
2019-03-15T09:29:16.203Z,1.60
2019-03-15T09:31:48.507Z,2.80
2019-03-15T09:34:19.257Z,2.77
2019-03-15T09:36:52.005Z,1.43
2019-03-15T09:39:23.350Z,1.87
2019-03-15T09:41:55.804Z,1.70
2019-03-15T09:44:26.805Z,1.20
2019-03-15T09:47:02.379Z,3.43
2019-03-15T09:49:33.533Z,4.33
2019-03-15T09:52:04.653Z,3.23
2019-03-15T09:54:36.724Z,2.43
2019-03-15T09:57:10.550Z,3.43
2019-03-15T09:59:41.181Z,4.03
2019-03-15T10:02:12.086Z,1.83
2019-03-15T10:04:42.649Z,2.93
2019-03-15T10:07:13.344Z,2.23
2019-03-15T10:09:46.150Z,3.40
2019-03-15T10:12:19.466Z,3.53
2019-03-15T10:14:50.715Z,2.10
2019-03-15T10:17:23.031Z,1.33
2019-03-15T10:19:53.646Z,1.27
2019-03-15T10:22:24.605Z,2.63
2019-03-15T10:24:55.203Z,4.00
2019-03-15T10:27:25.723Z,2.23
2019-03-15T10:30:01.557Z,2.40
2019-03-15T10:32:32.200Z,4.13
2019-03-15T10:35:03.324Z,2.30
2019-03-15T10:37:34.392Z,3.27
2019-03-15T10:40:13.088Z,1.37
2019-03-15T10:42:47.434Z,2.53
2019-03-15T10:45:18.025Z,1.37
2019-03-15T10:47:48.632Z,2.17
2019-03-15T10:50:20.335Z,3.37
2019-03-15T10:52:53.686Z,0.80
2019-03-15T10:55:26.270Z,4.10
2019-03-15T10:57:57.595Z,1.03
2019-03-15T11:00:29.274Z,2.47
2019-03-15T11:03:00.009Z,1.63
2019-03-15T11:05:34.895Z,1.53
2019-03-15T11:08:09.931Z,1.93
2019-03-15T11:10:40.429Z,1.70
2019-03-15T11:16:18.925Z,2.57
2019-03-15T11:18:49.489Z,2.83
2019-03-15T11:21:26.676Z,1.27
2019-03-15T11:23:58.027Z,2.70
2019-03-15T11:26:30.547Z,2.37
2019-03-15T11:29:01.111Z,3.23
2019-03-15T11:31:31.687Z,1.67
2019-03-15T11:34:02.248Z,1.13
2019-03-15T11:36:32.703Z,1.83
2019-03-15T11:39:03.272Z,2.63
2019-03-15T11:41:34.807Z,0.70
2019-03-15T11:44:05.742Z,3.77
2019-03-15T11:46:36.354Z,2.67
2019-03-15T11:49:07.237Z,2.23
2019-03-15T11:51:42.408Z,2.77
2019-03-15T11:54:12.351Z,4.43
2019-03-15T11:56:42.895Z,4.00
2019-03-15T11:59:13.409Z,3.40
2019-03-15T12:01:44.158Z,2.87
2019-03-15T12:04:14.767Z,4.07
2019-03-15T12:06:45.579Z,3.57
2019-03-15T12:09:16.138Z,3.37
2019-03-15T12:11:49.489Z,3.90
2019-03-15T12:14:21.753Z,4.10
2019-03-15T12:16:52.343Z,4.47
2019-03-15T12:19:25.744Z,2.50
2019-03-15T12:22:06.275Z,1.37
2019-03-15T12:24:29.315Z,3.00
2019-03-15T12:27:01.109Z,3.17
2019-03-15T12:29:33.161Z,2.30
2019-03-15T12:32:04.554Z,3.43
2019-03-15T12:34:35.031Z,1.60
2019-03-15T12:37:05.846Z,2.50
2019-03-15T12:39:38.427Z,6.50
2019-03-15T12:42:10.262Z,3.77
2019-03-15T12:44:41.236Z,4.53
2019-03-15T12:47:11.905Z,1.42
2019-03-15T12:49:42.510Z,2.07
2019-03-15T12:52:13.219Z,2.17
2019-03-15T12:54:43.812Z,4.53
2019-03-15T12:57:26.673Z,2.53
2019-03-15T12:59:57.273Z,2.53
2019-03-15T13:02:27.903Z,1.87
2019-03-15T13:04:58.447Z,3.87
2019-03-15T13:07:29.030Z,2.37
2019-03-15T13:09:59.653Z,1.93
2019-03-15T13:12:30.275Z,4.93
2019-03-15T13:15:00.921Z,2.10
2019-03-15T13:17:34.253Z,1.10
2019-03-15T13:23:02.458Z,1.73
2019-03-15T13:25:39.346Z,3.03
2019-03-15T13:28:10.995Z,2.73
2019-03-15T13:30:43.328Z,3.37
2019-03-15T13:33:20.289Z,3.60
2019-03-15T13:35:47.617Z,4.13
2019-03-15T13:38:18.241Z,2.80
2019-03-15T13:40:48.876Z,4.13
2019-03-15T13:43:21.559Z,3.53
2019-03-15T13:46:01.564Z,4.43
2019-03-15T13:48:32.166Z,2.63
2019-03-15T13:51:02.713Z,5.60
2019-03-15T13:53:34.540Z,2.07
2019-03-15T13:56:05.129Z,3.50
2019-03-15T13:58:35.740Z,2.87
2019-03-15T14:01:06.331Z,2.00
2019-03-15T14:03:38.325Z,2.83
2019-03-15T14:06:08.926Z,4.67
2019-03-15T14:08:39.590Z,3.13
2019-03-15T14:11:10.175Z,2.93
2019-03-15T14:13:40.786Z,4.83
2019-03-15T14:16:11.436Z,1.47
2019-03-15T14:18:42.008Z,3.77
2019-03-15T14:21:12.680Z,4.50
2019-03-15T14:23:44.116Z,3.87
2019-03-15T14:26:17.402Z,2.43
2019-03-15T14:28:49.317Z,1.73
2019-03-15T14:31:21.605Z,1.73
2019-03-15T14:33:52.079Z,3.97
2019-03-15T14:36:24.750Z,5.13
2019-03-15T14:38:55.949Z,2.50
2019-03-15T14:41:27.476Z,3.20
2019-03-15T14:43:59.304Z,1.90
2019-03-15T14:46:29.840Z,6.63
2019-03-15T14:49:00.424Z,2.70
2019-03-15T14:51:31.042Z,4.67
2019-03-15T14:54:02.641Z,4.90
2019-03-15T14:56:33.295Z,3.23
2019-03-15T14:59:04.050Z,3.23
2019-03-15T15:01:34.731Z,5.53
2019-03-15T15:04:10.176Z,5.30
2019-03-15T15:06:40.779Z,5.53
2019-03-15T15:09:11.694Z,5.07
2019-03-15T15:11:42.195Z,2.93
2019-03-15T15:14:12.784Z,5.27
2019-03-15T15:16:47.041Z,5.00
2019-03-15T15:19:17.654Z,4.53
2019-03-15T15:21:48.225Z,4.57
2019-03-15T15:24:19.624Z,3.43
2019-03-15T15:26:50.274Z,3.77
2019-03-15T15:29:22.137Z,3.27
2019-03-15T15:31:52.865Z,4.62
2019-03-15T15:34:23.515Z,5.10
2019-03-15T15:36:54.127Z,6.80
2019-03-15T15:39:24.701Z,4.17
2019-03-15T15:41:58.445Z,4.70
2019-03-15T15:44:44.514Z,4.97
2019-03-15T15:47:15.139Z,4.33
2019-03-15T15:49:45.764Z,6.63
2019-03-15T15:52:16.389Z,4.07
2019-03-15T15:54:47.043Z,3.97
2019-03-15T15:57:21.660Z,4.40
2019-03-15T15:59:54.412Z,6.83
2019-03-15T16:02:25.945Z,4.87
2019-03-15T16:04:56.455Z,3.60
2019-03-15T16:07:27.067Z,5.37
2019-03-15T16:09:58.681Z,4.13
2019-03-15T16:12:29.392Z,5.20
2019-03-15T16:15:01.424Z,6.30
2019-03-15T16:17:32.033Z,5.60
2019-03-15T16:20:02.726Z,4.87
2019-03-15T16:22:33.329Z,8.50
2019-03-15T16:25:06.341Z,7.07
2019-03-15T16:27:36.848Z,6.27
2019-03-15T16:30:20.029Z,7.50
2019-03-15T16:32:50.582Z,8.20
2019-03-15T16:35:21.193Z,5.77
2019-03-15T16:37:51.790Z,7.50
2019-03-15T16:40:22.387Z,6.27
2019-03-15T16:42:53.145Z,7.10
2019-03-15T16:45:29.777Z,6.60
2019-03-15T16:48:00.314Z,10.50
2019-03-15T16:50:30.889Z,5.40
2019-03-15T16:53:03.448Z,6.17
2019-03-15T16:55:34.043Z,9.13
2019-03-15T16:58:04.719Z,10.43
2019-03-15T17:00:36.458Z,9.93
2019-03-15T17:03:07.049Z,6.80
2019-03-15T17:05:39.118Z,8.80
2019-03-15T17:08:09.711Z,13.80
2019-03-15T17:10:40.657Z,8.77
2019-03-15T17:13:13.964Z,6.30
2019-03-15T17:15:45.041Z,6.53
2019-03-15T17:18:17.266Z,8.20
2019-03-15T17:23:48.333Z,5.93
2019-03-15T17:26:18.976Z,9.80
2019-03-15T17:28:58.537Z,7.30
2019-03-15T17:31:21.941Z,10.47
2019-03-15T17:33:52.551Z,6.40
2019-03-15T17:36:23.213Z,10.07
2019-03-15T17:38:53.959Z,3.77
2019-03-15T17:41:25.527Z,6.83
2019-03-15T17:43:56.128Z,3.60
2019-03-15T17:46:27.557Z,4.77
2019-03-15T17:48:59.567Z,5.90
2019-03-15T17:51:30.195Z,9.93
2019-03-15T17:54:01.586Z,9.50
2019-03-15T17:56:32.207Z,4.07
2019-03-15T17:59:12.456Z,3.70
2019-03-15T18:01:35.203Z,4.67
2019-03-15T18:04:06.013Z,4.10
2019-03-15T18:06:36.818Z,4.47
2019-03-15T18:09:07.602Z,3.63
2019-03-15T18:11:38.395Z,4.73
2019-03-15T18:14:08.988Z,2.90
2019-03-15T18:16:40.229Z,4.33
2019-03-15T18:19:16.035Z,2.10
2019-03-15T18:21:48.082Z,2.87
2019-03-15T18:24:18.684Z,3.17
2019-03-15T18:26:49.192Z,1.90
2019-03-15T18:29:26.184Z,3.50
2019-03-15T18:31:51.989Z,2.37
2019-03-15T18:34:22.595Z,1.90
2019-03-15T18:36:53.210Z,1.97
2019-03-15T18:39:23.806Z,2.60
2019-03-15T18:41:55.120Z,3.77
2019-03-15T18:44:25.813Z,2.40
2019-03-15T18:46:57.316Z,2.90
2019-03-15T18:49:28.109Z,3.77
2019-03-15T18:51:59.228Z,3.80
2019-03-15T18:54:30.599Z,3.30
2019-03-15T18:57:01.195Z,3.10
2019-03-15T18:59:39.782Z,2.33
2019-03-15T19:02:04.115Z,5.30
2019-03-15T19:04:34.684Z,3.13
2019-03-15T19:07:06.572Z,2.90
2019-03-15T19:09:37.164Z,3.53
2019-03-15T19:12:07.751Z,4.30
2019-03-15T19:14:39.677Z,4.83
2019-03-15T19:17:10.312Z,4.93
2019-03-15T19:19:40.901Z,3.43
2019-03-15T19:22:11.547Z,4.00
2019-03-15T19:27:21.377Z,3.87
2019-03-15T19:29:53.916Z,4.17
2019-03-15T19:32:24.131Z,5.40
2019-03-15T19:34:54.842Z,4.80
2019-03-15T19:37:25.544Z,4.43
2019-03-15T19:39:56.170Z,6.73
2019-03-15T19:42:26.824Z,3.67
2019-03-15T19:44:57.679Z,3.30
2019-03-15T19:47:29.219Z,4.37
2019-03-15T19:50:00.976Z,4.27
2019-03-15T19:52:31.616Z,2.70
2019-03-15T19:55:02.274Z,2.73
2019-03-15T19:57:32.874Z,2.50
2019-03-15T20:00:08.059Z,2.33
2019-03-15T20:02:37.848Z,2.67
2019-03-15T20:05:09.039Z,1.80
2019-03-15T20:07:40.001Z,2.00
2019-03-15T20:10:17.189Z,1.47
2019-03-15T20:12:48.086Z,1.70
2019-03-15T20:15:19.181Z,2.23
2019-03-15T20:17:49.815Z,1.50
2019-03-15T20:20:23.594Z,1.40
2019-03-15T20:22:54.187Z,1.57
2019-03-15T20:25:24.816Z,2.10
2019-03-15T20:27:55.456Z,2.13
2019-03-15T20:30:27.151Z,2.17
2019-03-15T20:32:57.937Z,4.40
2019-03-15T20:35:30.114Z,1.90
2019-03-15T20:38:01.380Z,2.47
2019-03-15T20:40:33.347Z,1.77
2019-03-15T20:43:04.288Z,3.17
2019-03-15T20:45:34.905Z,2.40
2019-03-15T20:48:07.922Z,3.47
2019-03-15T20:50:46.663Z,2.40
2019-03-15T20:53:12.844Z,3.33
2019-03-15T20:55:43.784Z,3.77
2019-03-15T20:58:14.729Z,1.80
2019-03-15T21:00:45.327Z,1.83
2019-03-15T21:03:15.965Z,2.30
2019-03-15T21:05:46.501Z,4.20
2019-03-15T21:08:17.154Z,2.87
2019-03-15T21:10:51.247Z,1.80
2019-03-15T21:13:20.385Z,2.90
2019-03-15T21:15:51.049Z,2.57
2019-03-15T21:18:21.662Z,3.10
2019-03-15T21:20:52.264Z,2.33
2019-03-15T21:23:22.911Z,2.27
2019-03-15T21:25:53.496Z,2.07
2019-03-15T21:28:24.151Z,2.43
2019-03-15T21:30:54.737Z,2.90
2019-03-15T21:33:26.002Z,4.83
2019-03-15T21:35:56.552Z,3.33
2019-03-15T21:38:27.580Z,4.47
2019-03-15T21:40:58.215Z,6.47
2019-03-15T21:43:28.837Z,4.43
2019-03-15T21:45:59.461Z,6.93
2019-03-15T21:48:31.249Z,6.97
2019-03-15T21:51:01.852Z,5.60
2019-03-15T21:53:32.520Z,6.17
2019-03-15T21:56:03.129Z,9.27
2019-03-15T21:58:37.569Z,11.70
2019-03-15T22:01:08.179Z,13.00
2019-03-15T22:03:38.690Z,6.93
2019-03-15T22:06:09.238Z,7.23
2019-03-15T22:08:40.643Z,7.23
2019-03-15T22:11:21.008Z,5.53
2019-03-15T22:13:43.664Z,7.47
2019-03-15T22:16:15.109Z,6.23
2019-03-15T22:18:45.713Z,7.37
2019-03-15T22:21:16.361Z,7.87
2019-03-15T22:23:46.936Z,6.40
2019-03-15T22:26:17.567Z,8.80
2019-03-15T22:28:50.040Z,9.80
2019-03-15T22:31:20.672Z,8.07
2019-03-15T22:33:51.217Z,8.37
2019-03-15T22:36:21.838Z,8.47
2019-03-15T22:38:52.426Z,7.97
2019-03-15T22:41:23.023Z,5.50
2019-03-15T22:43:54.428Z,6.40
2019-03-15T22:46:24.978Z,3.83
2019-03-15T22:48:56.388Z,3.40
2019-03-15T22:51:27.077Z,6.63
2019-03-15T22:53:57.624Z,5.37
2019-03-15T22:56:28.216Z,4.33
2019-03-15T22:58:58.790Z,3.57
2019-03-15T23:01:30.652Z,4.50
2019-03-15T23:04:01.318Z,5.70
2019-03-15T23:06:31.922Z,3.60
2019-03-15T23:09:02.668Z,3.97
2019-03-15T23:11:33.421Z,4.90
2019-03-15T23:14:04.096Z,4.03
2019-03-15T23:16:34.654Z,4.20
2019-03-15T23:19:05.862Z,4.30
2019-03-15T23:21:36.405Z,5.23
2019-03-15T23:24:07.266Z,3.97
2019-03-15T23:26:37.857Z,5.47
2019-03-15T23:29:08.390Z,4.83
2019-03-15T23:31:43.850Z,4.90
2019-03-15T23:34:11.966Z,4.60
2019-03-15T23:36:42.656Z,4.43
2019-03-15T23:39:14.182Z,4.90
2019-03-15T23:41:44.797Z,4.57
2019-03-15T23:44:15.316Z,7.37
2019-03-15T23:46:45.952Z,6.93
2019-03-15T23:49:18.515Z,4.93
2019-03-15T23:51:49.125Z,4.50
2019-03-15T23:54:19.575Z,4.60
2019-03-15T23:56:50.097Z,5.53
2019-03-15T23:59:20.642Z,5.30
